sensor_id;sensor_type;location;lat;lon;timestamp;pressure;altitude;pressure_sealevel;temperature;humidity
83631;BME280;73593;52.134;5.426;2023-11-21T00:01:58;101150.16;;;5.36;93.76
83631;BME280;73593;52.134;5.426;2023-11-21T00:04:28;101161.50;;;5.36;93.99
83631;BME280;73593;52.134;5.426;2023-11-21T00:06:57;101155.41;;;5.36;94.18
83631;BME280;73593;52.134;5.426;2023-11-21T00:09:24;101164.97;;;5.37;94.05
83631;BME280;73593;52.134;5.426;2023-11-21T00:11:53;101171.91;;;5.38;94.03
83631;BME280;73593;52.134;5.426;2023-11-21T00:14:22;101170.03;;;5.40;94.17
83631;BME280;73593;52.134;5.426;2023-11-21T00:16:49;101173.69;;;5.37;93.74
83631;BME280;73593;52.134;5.426;2023-11-21T00:19:20;101172.84;;;5.37;93.73
83631;BME280;73593;52.134;5.426;2023-11-21T00:21:49;101170.03;;;5.40;94.05
83631;BME280;73593;52.134;5.426;2023-11-21T00:24:17;101177.84;;;5.42;94.37
83631;BME280;73593;52.134;5.426;2023-11-21T00:26:44;101174.38;;;5.41;93.92
83631;BME280;73593;52.134;5.426;2023-11-21T00:29:10;101178.78;;;5.41;94.22
83631;BME280;73593;52.134;5.426;2023-11-21T00:31:37;101178.78;;;5.41;94.29
83631;BME280;73593;52.134;5.426;2023-11-21T00:34:05;101179.69;;;5.39;94.00
83631;BME280;73593;52.134;5.426;2023-11-21T00:36:34;101179.69;;;5.39;94.26
83631;BME280;73593;52.134;5.426;2023-11-21T00:39:03;101173.69;;;5.37;94.63
83631;BME280;73593;52.134;5.426;2023-11-21T00:41:33;101184.19;;;5.37;94.43
83631;BME280;73593;52.134;5.426;2023-11-21T00:44:05;101188.69;;;5.35;94.49
83631;BME280;73593;52.134;5.426;2023-11-21T00:46:33;101183.56;;;5.32;94.53
83631;BME280;73593;52.134;5.426;2023-11-21T00:49:00;101186.38;;;5.29;94.16
83631;BME280;73593;52.134;5.426;2023-11-21T00:51:27;101182.97;;;5.27;94.29
83631;BME280;73593;52.134;5.426;2023-11-21T00:53:53;101193.56;;;5.26;94.28
83631;BME280;73593;52.134;5.426;2023-11-21T00:56:20;101194.41;;;5.26;94.41
83631;BME280;73593;52.134;5.426;2023-11-21T00:58:51;101197.13;;;5.25;94.28
83631;BME280;73593;52.134;5.426;2023-11-21T01:01:20;101193.75;;;5.23;94.41
83631;BME280;73593;52.134;5.426;2023-11-21T01:03:50;101206.06;;;5.21;94.00
83631;BME280;73593;52.134;5.426;2023-11-21T01:06:19;101207.84;;;5.20;94.01
83631;BME280;73593;52.134;5.426;2023-11-21T01:08:46;101219.13;;;5.22;93.89
83631;BME280;73593;52.134;5.426;2023-11-21T01:11:15;101221.69;;;5.24;94.04
83631;BME280;73593;52.134;5.426;2023-11-21T01:13:44;101219.81;;;5.26;94.17
83631;BME280;73593;52.134;5.426;2023-11-21T01:16:11;101218.88;;;5.27;94.00
83631;BME280;73593;52.134;5.426;2023-11-21T01:18:40;101224.06;;;5.28;93.84
83631;BME280;73593;52.134;5.426;2023-11-21T01:21:07;101227.44;;;5.30;94.04
83631;BME280;73593;52.134;5.426;2023-11-21T01:23:35;101219.56;;;5.30;93.81
83631;BME280;73593;52.134;5.426;2023-11-21T01:26:04;101217.88;;;5.29;93.89
83631;BME280;73593;52.134;5.426;2023-11-21T01:28:31;101212.53;;;5.31;94.19
83631;BME280;73593;52.134;5.426;2023-11-21T01:31:00;101215.16;;;5.31;94.15
83631;BME280;73593;52.134;5.426;2023-11-21T01:33:26;101217.78;;;5.31;94.21
83631;BME280;73593;52.134;5.426;2023-11-21T01:35:56;101220.31;;;5.32;94.19
83631;BME280;73593;52.134;5.426;2023-11-21T01:38:25;101223.75;;;5.34;94.25
83631;BME280;73593;52.134;5.426;2023-11-21T01:40:52;101226.28;;;5.36;94.28
83631;BME280;73593;52.134;5.426;2023-11-21T01:43:18;101220.94;;;5.37;93.97
83631;BME280;73593;52.134;5.426;2023-11-21T01:45:45;101235.66;;;5.40;94.31
83631;BME280;73593;52.134;5.426;2023-11-21T01:48:14;101226.88;;;5.41;94.28
83631;BME280;73593;52.134;5.426;2023-11-21T01:50:43;101231.13;;;5.44;93.98
83631;BME280;73593;52.134;5.426;2023-11-21T01:53:14;101234.50;;;5.46;94.22
83631;BME280;73593;52.134;5.426;2023-11-21T01:55:44;101237.91;;;5.48;94.08
83631;BME280;73593;52.134;5.426;2023-11-21T01:58:13;101228.91;;;5.52;93.95
83631;BME280;73593;52.134;5.426;2023-11-21T02:00:40;101238.44;;;5.54;94.16
83631;BME280;73593;52.134;5.426;2023-11-21T02:03:07;101240.88;;;5.57;94.03
83631;BME280;73593;52.134;5.426;2023-11-21T02:05:37;101241.66;;;5.59;93.71
83631;BME280;73593;52.134;5.426;2023-11-21T02:08:08;101252.84;;;5.63;94.20
83631;BME280;73593;52.134;5.426;2023-11-21T02:10:37;101261.50;;;5.65;94.13
83631;BME280;73593;52.134;5.426;2023-11-21T02:13:07;101256.06;;;5.68;94.05
83631;BME280;73593;52.134;5.426;2023-11-21T02:15:33;101257.75;;;5.69;94.44
83631;BME280;73593;52.134;5.426;2023-11-21T02:18:02;101264.56;;;5.73;94.05
83631;BME280;73593;52.134;5.426;2023-11-21T02:20:29;101265.22;;;5.77;94.15
83631;BME280;73593;52.134;5.426;2023-11-21T02:22:57;101266.00;;;5.79;94.43
83631;BME280;73593;52.134;5.426;2023-11-21T02:27:55;101267.47;;;5.84;94.15
83631;BME280;73593;52.134;5.426;2023-11-21T02:30:24;101270.84;;;5.86;94.53
83631;BME280;73593;52.134;5.426;2023-11-21T02:33:03;101274.16;;;5.90;94.48
83631;BME280;73593;52.134;5.426;2023-11-21T02:35:30;101279.28;;;5.93;94.37
83631;BME280;73593;52.134;5.426;2023-11-21T02:37:58;101272.16;;;5.95;94.36
83631;BME280;73593;52.134;5.426;2023-11-21T02:40:25;101279.88;;;5.98;94.72
83631;BME280;73593;52.134;5.426;2023-11-21T02:42:54;101278.00;;;6.00;95.07
83631;BME280;73593;52.134;5.426;2023-11-21T02:45:21;101280.47;;;6.03;94.30
83631;BME280;73593;52.134;5.426;2023-11-21T02:47:48;101285.56;;;6.06;94.47
83631;BME280;73593;52.134;5.426;2023-11-21T02:50:16;101284.47;;;6.10;94.29
83631;BME280;73593;52.134;5.426;2023-11-21T02:52:45;101283.44;;;6.13;94.61
83631;BME280;73593;52.134;5.426;2023-11-21T02:55:12;101278.97;;;6.15;94.60
83631;BME280;73593;52.134;5.426;2023-11-21T02:57:39;101274.47;;;6.17;94.41
83631;BME280;73593;52.134;5.426;2023-11-21T03:00:06;101281.41;;;6.18;94.33
83631;BME280;73593;52.134;5.426;2023-11-21T03:02:44;101280.41;;;6.21;94.82
83631;BME280;73593;52.134;5.426;2023-11-21T03:05:14;101270.72;;;6.21;94.65
83631;BME280;73593;52.134;5.426;2023-11-21T03:07:40;101279.28;;;6.25;94.23
83631;BME280;73593;52.134;5.426;2023-11-21T03:10:08;101278.28;;;6.27;94.42
83631;BME280;73593;52.134;5.426;2023-11-21T03:12:37;101278.19;;;6.29;94.63
83631;BME280;73593;52.134;5.426;2023-11-21T03:15:07;101278.09;;;6.30;94.65
83631;BME280;73593;52.134;5.426;2023-11-21T03:17:37;101276.25;;;6.32;94.70
83631;BME280;73593;52.134;5.426;2023-11-21T03:20:04;101275.22;;;6.35;94.69
83631;BME280;73593;52.134;5.426;2023-11-21T03:22:34;101281.22;;;6.37;94.60
83631;BME280;73593;52.134;5.426;2023-11-21T03:25:00;101281.16;;;6.38;94.59
83631;BME280;73593;52.134;5.426;2023-11-21T03:27:27;101284.53;;;6.40;94.79
83631;BME280;73593;52.134;5.426;2023-11-21T03:29:56;101278.44;;;6.40;94.67
83631;BME280;73593;52.134;5.426;2023-11-21T03:32:25;101274.97;;;6.39;94.77
83631;BME280;73593;52.134;5.426;2023-11-21T03:34:58;101279.38;;;6.39;95.05
83631;BME280;73593;52.134;5.426;2023-11-21T03:37:30;101286.34;;;6.40;94.84
83631;BME280;73593;52.134;5.426;2023-11-21T03:39:56;101288.88;;;6.41;94.99
83631;BME280;73593;52.134;5.426;2023-11-21T03:42:24;101296.66;;;6.43;94.60
83631;BME280;73593;52.134;5.426;2023-11-21T03:44:53;101297.34;;;6.46;95.05
83631;BME280;73593;52.134;5.426;2023-11-21T03:47:20;101292.94;;;6.47;94.93
83631;BME280;73593;52.134;5.426;2023-11-21T03:49:49;101295.38;;;6.50;94.78
83631;BME280;73593;52.134;5.426;2023-11-21T03:52:15;101300.56;;;6.52;95.01
83631;BME280;73593;52.134;5.426;2023-11-21T03:54:47;101300.47;;;6.53;94.73
83631;BME280;73593;52.134;5.426;2023-11-21T03:57:19;101310.91;;;6.55;95.04
83631;BME280;73593;52.134;5.426;2023-11-21T03:59:45;101314.22;;;6.58;95.05
83631;BME280;73593;52.134;5.426;2023-11-21T04:02:12;101310.75;;;6.58;94.63
83631;BME280;73593;52.134;5.426;2023-11-21T04:04:41;101312.34;;;6.60;94.71
83631;BME280;73593;52.134;5.426;2023-11-21T04:07:08;101314.03;;;6.61;94.56
83631;BME280;73593;52.134;5.426;2023-11-21T04:09:37;101320.16;;;6.62;94.96
83631;BME280;73593;52.134;5.426;2023-11-21T04:12:04;101319.22;;;6.63;94.71
83631;BME280;73593;52.134;5.426;2023-11-21T04:14:35;101328.72;;;6.65;94.92
83631;BME280;73593;52.134;5.426;2023-11-21T04:17:02;101330.31;;;6.68;95.20
83631;BME280;73593;52.134;5.426;2023-11-21T04:19:35;101331.16;;;6.68;95.04
83631;BME280;73593;52.134;5.426;2023-11-21T04:22:07;101335.53;;;6.69;94.94
83631;BME280;73593;52.134;5.426;2023-11-21T04:24:35;101338.91;;;6.71;95.06
83631;BME280;73593;52.134;5.426;2023-11-21T04:27:07;101336.28;;;6.71;94.95
83631;BME280;73593;52.134;5.426;2023-11-21T04:29:37;101347.53;;;6.73;94.75
83631;BME280;73593;52.134;5.426;2023-11-21T04:32:03;101348.41;;;6.74;94.93
83631;BME280;73593;52.134;5.426;2023-11-21T04:34:33;101349.25;;;6.74;94.75
83631;BME280;73593;52.134;5.426;2023-11-21T04:37:02;101351.88;;;6.74;94.94
83631;BME280;73593;52.134;5.426;2023-11-21T04:39:32;101360.59;;;6.75;94.79
83631;BME280;73593;52.134;5.426;2023-11-21T04:41:59;101364.13;;;6.76;94.55
83631;BME280;73593;52.134;5.426;2023-11-21T04:44:28;101370.22;;;6.76;94.81
83631;BME280;73593;52.134;5.426;2023-11-21T04:46:54;101370.88;;;6.80;94.85
83631;BME280;73593;52.134;5.426;2023-11-21T04:49:22;101370.78;;;6.81;94.37
83631;BME280;73593;52.134;5.426;2023-11-21T04:51:51;101376.84;;;6.83;94.69
83631;BME280;73593;52.134;5.426;2023-11-21T04:54:17;101377.59;;;6.85;94.99
83631;BME280;73593;52.134;5.426;2023-11-21T04:56:44;101367.81;;;6.87;95.04
83631;BME280;73593;52.134;5.426;2023-11-21T04:59:13;101361.69;;;6.87;94.69
83631;BME280;73593;52.134;5.426;2023-11-21T05:01:40;101367.66;;;6.90;95.42
83631;BME280;73593;52.134;5.426;2023-11-21T05:04:09;101371.97;;;6.91;94.84
83631;BME280;73593;52.134;5.426;2023-11-21T05:06:36;101374.50;;;6.93;95.09
83631;BME280;73593;52.134;5.426;2023-11-21T05:09:03;101378.00;;;6.93;95.05
83631;BME280;73593;52.134;5.426;2023-11-21T05:11:32;101386.75;;;6.94;95.15
83631;BME280;73593;52.134;5.426;2023-11-21T05:14:01;101394.56;;;6.95;94.83
83631;BME280;73593;52.134;5.426;2023-11-21T05:16:30;101388.34;;;6.96;94.71
83631;BME280;73593;52.134;5.426;2023-11-21T05:18:57;101390.91;;;6.98;95.34
83631;BME280;73593;52.134;5.426;2023-11-21T05:21:27;101391.75;;;6.98;95.04
83631;BME280;73593;52.134;5.426;2023-11-21T05:23:58;101400.41;;;7.00;95.01
83631;BME280;73593;52.134;5.426;2023-11-21T05:26:27;101399.47;;;7.02;95.15
83631;BME280;73593;52.134;5.426;2023-11-21T05:28:54;101394.13;;;7.03;95.67
83631;BME280;73593;52.134;5.426;2023-11-21T05:31:23;101397.50;;;7.05;95.20
83631;BME280;73593;52.134;5.426;2023-11-21T05:33:49;101394.81;;;7.07;94.84
83631;BME280;73593;52.134;5.426;2023-11-21T05:36:18;101400.81;;;7.09;95.41
83631;BME280;73593;52.134;5.426;2023-11-21T05:38:45;101413.03;;;7.10;95.28
83631;BME280;73593;52.134;5.426;2023-11-21T05:41:12;101411.16;;;7.12;94.98
83631;BME280;73593;52.134;5.426;2023-11-21T05:43:41;101413.72;;;7.13;95.03
83631;BME280;73593;52.134;5.426;2023-11-21T05:46:10;101416.28;;;7.15;95.13
83631;BME280;73593;52.134;5.426;2023-11-21T05:48:37;101416.19;;;7.16;95.04
83631;BME280;73593;52.134;5.426;2023-11-21T05:51:07;101424.84;;;7.18;95.17
83631;BME280;73593;52.134;5.426;2023-11-21T05:53:34;101422.13;;;7.20;95.58
83631;BME280;73593;52.134;5.426;2023-11-21T05:56:02;101429.09;;;7.21;95.20
83631;BME280;73593;52.134;5.426;2023-11-21T05:58:30;101436.88;;;7.22;95.19
83631;BME280;73593;52.134;5.426;2023-11-21T06:00:57;101435.88;;;7.25;94.98
83631;BME280;73593;52.134;5.426;2023-11-21T06:03:26;101437.56;;;7.26;95.27
83631;BME280;73593;52.134;5.426;2023-11-21T06:05:53;101440.13;;;7.27;95.35
83631;BME280;73593;52.134;5.426;2023-11-21T06:08:20;101446.13;;;7.30;95.59
83631;BME280;73593;52.134;5.426;2023-11-21T06:10:46;101447.75;;;7.32;95.10
83631;BME280;73593;52.134;5.426;2023-11-21T06:13:18;101445.03;;;7.34;95.26
83631;BME280;73593;52.134;5.426;2023-11-21T06:15:51;101450.13;;;7.37;95.45
83631;BME280;73593;52.134;5.426;2023-11-21T06:18:18;101457.94;;;7.38;95.59
83631;BME280;73593;52.134;5.426;2023-11-21T06:20:47;101461.31;;;7.40;95.46
83631;BME280;73593;52.134;5.426;2023-11-21T06:23:14;101461.22;;;7.42;95.51
83631;BME280;73593;52.134;5.426;2023-11-21T06:25:40;101461.06;;;7.45;95.34
83631;BME280;73593;52.134;5.426;2023-11-21T06:28:07;101467.88;;;7.49;95.51
83631;BME280;73593;52.134;5.426;2023-11-21T06:30:36;101466.09;;;7.49;95.52
83631;BME280;73593;52.134;5.426;2023-11-21T06:33:08;101465.97;;;7.51;95.27
83631;BME280;73593;52.134;5.426;2023-11-21T06:35:34;101470.22;;;7.53;95.48
83631;BME280;73593;52.134;5.426;2023-11-21T06:38:01;101475.41;;;7.55;95.71
83631;BME280;73593;52.134;5.426;2023-11-21T06:40:29;101475.22;;;7.58;95.46
83631;BME280;73593;52.134;5.426;2023-11-21T06:42:59;101474.19;;;7.61;95.66
83631;BME280;73593;52.134;5.426;2023-11-21T06:45:28;101479.41;;;7.62;95.41
83631;BME280;73593;52.134;5.426;2023-11-21T06:47:57;101478.34;;;7.65;95.41
83631;BME280;73593;52.134;5.426;2023-11-21T06:50:29;101483.47;;;7.68;95.59
83631;BME280;73593;52.134;5.426;2023-11-21T06:52:56;101492.13;;;7.70;95.65
83631;BME280;73593;52.134;5.426;2023-11-21T06:55:23;101497.19;;;7.73;95.66
83631;BME280;73593;52.134;5.426;2023-11-21T06:57:50;101491.75;;;7.76;95.16
83631;BME280;73593;52.134;5.426;2023-11-21T07:00:18;101490.72;;;7.78;95.54
83631;BME280;73593;52.134;5.426;2023-11-21T07:02:45;101498.47;;;7.81;95.61
83631;BME280;73593;52.134;5.426;2023-11-21T07:05:12;101502.78;;;7.82;95.56
83631;BME280;73593;52.134;5.426;2023-11-21T07:07:41;101514.09;;;7.85;95.77
83631;BME280;73593;52.134;5.426;2023-11-21T07:10:11;101513.91;;;7.88;95.69
83631;BME280;73593;52.134;5.426;2023-11-21T07:12:37;101512.88;;;7.90;95.92
83631;BME280;73593;52.134;5.426;2023-11-21T07:15:04;101524.19;;;7.92;95.65
83631;BME280;73593;52.134;5.426;2023-11-21T07:17:33;101525.78;;;7.95;95.64
83631;BME280;73593;52.134;5.426;2023-11-21T07:20:08;101529.19;;;7.97;95.58
83631;BME280;73593;52.134;5.426;2023-11-21T07:22:35;101531.66;;;8.00;95.81
83631;BME280;73593;52.134;5.426;2023-11-21T07:25:01;101537.66;;;8.02;95.53
83631;BME280;73593;52.134;5.426;2023-11-21T07:27:28;101538.41;;;8.04;95.08
83631;BME280;73593;52.134;5.426;2023-11-21T07:29:55;101545.31;;;8.06;95.96
83631;BME280;73593;52.134;5.426;2023-11-21T07:32:24;101546.16;;;8.07;96.04
83631;BME280;73593;52.134;5.426;2023-11-21T07:34:56;101548.53;;;8.12;96.08
83631;BME280;73593;52.134;5.426;2023-11-21T07:37:26;101545.72;;;8.15;95.71
83631;BME280;73593;52.134;5.426;2023-11-21T07:39:59;101541.22;;;8.17;95.85
83631;BME280;73593;52.134;5.426;2023-11-21T07:42:29;101549.03;;;8.18;96.20
83631;BME280;73593;52.134;5.426;2023-11-21T07:44:55;101552.41;;;8.20;95.77
83631;BME280;73593;52.134;5.426;2023-11-21T07:47:23;101554.03;;;8.23;95.85
83631;BME280;73593;52.134;5.426;2023-11-21T07:49:56;101563.53;;;8.25;95.94
83631;BME280;73593;52.134;5.426;2023-11-21T07:52:25;101562.59;;;8.26;95.95
83631;BME280;73593;52.134;5.426;2023-11-21T07:54:52;101568.44;;;8.31;95.88
83631;BME280;73593;52.134;5.426;2023-11-21T07:57:18;101572.69;;;8.34;95.85
83631;BME280;73593;52.134;5.426;2023-11-21T07:59:45;101573.41;;;8.38;95.92
83631;BME280;73593;52.134;5.426;2023-11-21T08:02:16;101581.03;;;8.42;95.92
83631;BME280;73593;52.134;5.426;2023-11-21T08:04:46;101586.97;;;8.46;96.03
83631;BME280;73593;52.134;5.426;2023-11-21T08:07:19;101595.47;;;8.51;96.21
83631;BME280;73593;52.134;5.426;2023-11-21T08:09:46;101590.88;;;8.54;96.01
83631;BME280;73593;52.134;5.426;2023-11-21T08:12:16;101602.84;;;8.60;96.19
83631;BME280;73593;52.134;5.426;2023-11-21T08:14:46;101605.19;;;8.65;95.90
83631;BME280;73593;52.134;5.426;2023-11-21T08:17:15;101617.25;;;8.69;95.95
83631;BME280;73593;52.134;5.426;2023-11-21T08:19:44;101619.72;;;8.72;95.78
83631;BME280;73593;52.134;5.426;2023-11-21T08:22:11;101629.16;;;8.76;96.30
83631;BME280;73593;52.134;5.426;2023-11-21T08:24:40;101629.81;;;8.79;95.68
83631;BME280;73593;52.134;5.426;2023-11-21T08:27:09;101633.09;;;8.83;95.93
83631;BME280;73593;52.134;5.426;2023-11-21T08:29:42;101638.13;;;8.87;95.85
83631;BME280;73593;52.134;5.426;2023-11-21T08:32:11;101638.97;;;8.88;95.68
83631;BME280;73593;52.134;5.426;2023-11-21T08:34:38;101644.16;;;8.89;95.85
83631;BME280;73593;52.134;5.426;2023-11-21T08:37:09;101659.06;;;8.91;95.93
83631;BME280;73593;52.134;5.426;2023-11-21T08:39:38;101664.25;;;8.92;95.67
83631;BME280;73593;52.134;5.426;2023-11-21T08:42:11;101671.22;;;8.93;95.69
83631;BME280;73593;52.134;5.426;2023-11-21T08:44:38;101679.06;;;8.95;95.91
83631;BME280;73593;52.134;5.426;2023-11-21T08:47:07;101681.53;;;8.98;95.87
83631;BME280;73593;52.134;5.426;2023-11-21T08:49:36;101677.72;;;9.02;95.55
83631;BME280;73593;52.134;5.426;2023-11-21T08:52:04;101683.78;;;9.04;95.95
83631;BME280;73593;52.134;5.426;2023-11-21T08:54:33;101678.31;;;9.07;95.85
83631;BME280;73593;52.134;5.426;2023-11-21T08:57:00;101680.00;;;9.08;95.71
83631;BME280;73593;52.134;5.426;2023-11-21T08:59:29;101683.41;;;9.10;96.05
83631;BME280;73593;52.134;5.426;2023-11-21T09:01:56;101679.56;;;9.15;95.85
83631;BME280;73593;52.134;5.426;2023-11-21T09:04:25;101672.94;;;9.23;95.76
83631;BME280;73593;52.134;5.426;2023-11-21T09:06:54;101686.13;;;9.37;95.77
83631;BME280;73593;52.134;5.426;2023-11-21T09:09:20;101701.97;;;9.51;95.68
83631;BME280;73593;52.134;5.426;2023-11-21T09:11:47;101710.28;;;9.59;95.74
83631;BME280;73593;52.134;5.426;2023-11-21T09:14:18;101711.78;;;9.63;95.57
83631;BME280;73593;52.134;5.426;2023-11-21T09:16:47;101716.22;;;9.63;95.55
83631;BME280;73593;52.134;5.426;2023-11-21T09:19:18;101724.25;;;9.61;95.27
83631;BME280;73593;52.134;5.426;2023-11-21T09:21:46;101720.88;;;9.59;95.38
83631;BME280;73593;52.134;5.426;2023-11-21T09:24:12;101728.81;;;9.59;95.40
83631;BME280;73593;52.134;5.426;2023-11-21T09:26:41;101726.25;;;9.58;95.14
83631;BME280;73593;52.134;5.426;2023-11-21T09:29:11;101735.88;;;9.59;94.94
83631;BME280;73593;52.134;5.426;2023-11-21T09:31:40;101735.97;;;9.57;95.28
83631;BME280;73593;52.134;5.426;2023-11-21T09:34:15;101741.34;;;9.56;94.98
83631;BME280;73593;52.134;5.426;2023-11-21T09:36:47;101747.59;;;9.55;94.96
83631;BME280;73593;52.134;5.426;2023-11-21T09:39:14;101756.47;;;9.54;95.17
83631;BME280;73593;52.134;5.426;2023-11-21T09:41:50;101765.34;;;9.53;94.80
83631;BME280;73593;52.134;5.426;2023-11-21T09:44:18;101761.94;;;9.51;94.56
83631;BME280;73593;52.134;5.426;2023-11-21T09:46:48;101771.84;;;9.47;94.86
83631;BME280;73593;52.134;5.426;2023-11-21T09:49:23;101775.50;;;9.45;94.53
83631;BME280;73593;52.134;5.426;2023-11-21T09:51:53;101778.38;;;9.41;94.51
83631;BME280;73593;52.134;5.426;2023-11-21T09:54:21;101782.91;;;9.39;94.46
83631;BME280;73593;52.134;5.426;2023-11-21T09:56:48;101789.88;;;9.40;94.33
83631;BME280;73593;52.134;5.426;2023-11-21T09:59:17;101785.53;;;9.39;94.14
83631;BME280;73593;52.134;5.426;2023-11-21T10:01:47;101786.47;;;9.38;94.32
83631;BME280;73593;52.134;5.426;2023-11-21T10:04:14;101791.56;;;9.41;94.01
83631;BME280;73593;52.134;5.426;2023-11-21T10:06:44;101794.50;;;9.37;93.87
83631;BME280;73593;52.134;5.426;2023-11-21T10:09:15;101795.59;;;9.33;93.98
83631;BME280;73593;52.134;5.426;2023-11-21T10:11:42;101792.03;;;9.34;93.90
83631;BME280;73593;52.134;5.426;2023-11-21T10:14:11;101798.25;;;9.33;93.92
83631;BME280;73593;52.134;5.426;2023-11-21T10:16:40;101805.44;;;9.31;93.82
83631;BME280;73593;52.134;5.426;2023-11-21T10:19:10;101812.41;;;9.32;93.67
83631;BME280;73593;52.134;5.426;2023-11-21T10:21:42;101813.94;;;9.36;93.72
83631;BME280;73593;52.134;5.426;2023-11-21T10:24:09;101830.09;;;9.46;93.81
83631;BME280;73593;52.134;5.426;2023-11-21T10:26:36;101833.13;;;9.54;93.69
83631;BME280;73593;52.134;5.426;2023-11-21T10:29:20;101827.56;;;9.58;93.33
83631;BME280;73593;52.134;5.426;2023-11-21T10:31:50;101833.59;;;9.60;92.88
83631;BME280;73593;52.134;5.426;2023-11-21T10:34:21;101831.81;;;9.61;93.19
83631;BME280;73593;52.134;5.426;2023-11-21T10:36:48;101833.69;;;9.59;93.06
83631;BME280;73593;52.134;5.426;2023-11-21T10:39:19;101840.09;;;9.55;92.89
83631;BME280;73593;52.134;5.426;2023-11-21T10:41:53;101845.66;;;9.50;92.87
83631;BME280;73593;52.134;5.426;2023-11-21T10:44:21;101859.06;;;9.47;92.65
83631;BME280;73593;52.134;5.426;2023-11-21T10:46:50;101862.19;;;9.39;92.62
83631;BME280;73593;52.134;5.426;2023-11-21T10:49:22;101874.81;;;9.34;92.45
83631;BME280;73593;52.134;5.426;2023-11-21T10:51:52;101883.75;;;9.32;92.53
83631;BME280;73593;52.134;5.426;2023-11-21T10:54:20;101876.78;;;9.31;92.60
83631;BME280;73593;52.134;5.426;2023-11-21T10:56:51;101889.22;;;9.29;92.70
83631;BME280;73593;52.134;5.426;2023-11-21T10:59:20;101891.03;;;9.28;92.57
83631;BME280;73593;52.134;5.426;2023-11-21T11:01:54;101892.81;;;9.28;92.63
83631;BME280;73593;52.134;5.426;2023-11-21T11:04:22;101897.25;;;9.27;92.67
83631;BME280;73593;52.134;5.426;2023-11-21T11:06:57;101898.09;;;9.28;92.55
83631;BME280;73593;52.134;5.426;2023-11-21T11:09:31;101897.16;;;9.29;92.56
83631;BME280;73593;52.134;5.426;2023-11-21T11:12:02;101894.31;;;9.32;92.72
83631;BME280;73593;52.134;5.426;2023-11-21T11:14:31;101897.66;;;9.35;92.44
83631;BME280;73593;52.134;5.426;2023-11-21T11:17:01;101895.84;;;9.36;92.89
83631;BME280;73593;52.134;5.426;2023-11-21T11:19:29;101885.38;;;9.34;92.60
83631;BME280;73593;52.134;5.426;2023-11-21T11:22:11;101893.38;;;9.33;92.36
83631;BME280;73593;52.134;5.426;2023-11-21T11:25:15;101900.47;;;9.32;92.59
83631;BME280;73593;52.134;5.426;2023-11-21T11:27:47;101908.31;;;9.34;92.52
83631;BME280;73593;52.134;5.426;2023-11-21T11:30:41;101905.66;;;9.34;92.47
83631;BME280;73593;52.134;5.426;2023-11-21T11:36:17;101909.66;;;9.41;92.43
83631;BME280;73593;52.134;5.426;2023-11-21T11:38:50;101910.91;;;9.50;92.50
83631;BME280;73593;52.134;5.426;2023-11-21T11:41:30;101909.03;;;9.52;92.20
83631;BME280;73593;52.134;5.426;2023-11-21T11:44:00;101914.38;;;9.50;91.97
83631;BME280;73593;52.134;5.426;2023-11-21T11:46:41;101912.88;;;9.46;92.22
83631;BME280;73593;52.134;5.426;2023-11-21T11:49:08;101922.50;;;9.47;92.09
83631;BME280;73593;52.134;5.426;2023-11-21T11:51:37;101927.78;;;9.47;92.13
83631;BME280;73593;52.134;5.426;2023-11-21T11:54:05;101925.91;;;9.49;92.30
83631;BME280;73593;52.134;5.426;2023-11-21T11:56:36;101930.19;;;9.52;92.22
83631;BME280;73593;52.134;5.426;2023-11-21T11:59:08;101940.56;;;9.55;92.22
83631;BME280;73593;52.134;5.426;2023-11-21T12:01:36;101936.13;;;9.55;91.96
83631;BME280;73593;52.134;5.426;2023-11-21T12:06:42;101948.00;;;9.48;92.04
83631;BME280;73593;52.134;5.426;2023-11-21T12:11:46;101949.78;;;9.48;92.04
83631;BME280;73593;52.134;5.426;2023-11-21T12:14:13;101960.09;;;9.52;92.26
83631;BME280;73593;52.134;5.426;2023-11-21T12:16:41;101954.03;;;9.50;92.04
83631;BME280;73593;52.134;5.426;2023-11-21T12:19:12;101964.81;;;9.47;92.02
83631;BME280;73593;52.134;5.426;2023-11-21T12:21:39;101965.91;;;9.43;91.87
83631;BME280;73593;52.134;5.426;2023-11-21T12:24:09;101962.59;;;9.39;91.80
83631;BME280;73593;52.134;5.426;2023-11-21T12:26:59;101957.38;;;9.38;91.70
83631;BME280;73593;52.134;5.426;2023-11-21T12:29:28;101966.34;;;9.35;91.62
83631;BME280;73593;52.134;5.426;2023-11-21T12:31:56;101971.66;;;9.35;91.80
83631;BME280;73593;52.134;5.426;2023-11-21T12:34:23;101970.00;;;9.33;91.80
83631;BME280;73593;52.134;5.426;2023-11-21T12:36:52;101969.25;;;9.31;91.82
83631;BME280;73593;52.134;5.426;2023-11-21T12:39:21;101965.75;;;9.30;91.94
83631;BME280;73593;52.134;5.426;2023-11-21T12:41:49;101974.63;;;9.29;91.85
83631;BME280;73593;52.134;5.426;2023-11-21T12:44:18;101977.28;;;9.29;92.01
83631;BME280;73593;52.134;5.426;2023-11-21T12:46:45;101976.34;;;9.30;91.81
83631;BME280;73593;52.134;5.426;2023-11-21T12:49:14;101983.41;;;9.30;91.94
83631;BME280;73593;52.134;5.426;2023-11-21T12:51:45;101979.06;;;9.29;91.74
83631;BME280;73593;52.134;5.426;2023-11-21T12:54:13;101984.44;;;9.27;91.88
83631;BME280;73593;52.134;5.426;2023-11-21T12:56:44;101995.94;;;9.26;91.82
83631;BME280;73593;52.134;5.426;2023-11-21T12:59:13;101997.72;;;9.26;91.79
83631;BME280;73593;52.134;5.426;2023-11-21T13:01:44;101997.66;;;9.27;91.62
83631;BME280;73593;52.134;5.426;2023-11-21T13:04:12;102001.81;;;9.31;91.69
83631;BME280;73593;52.134;5.426;2023-11-21T13:06:39;102001.47;;;9.37;91.72
83631;BME280;73593;52.134;5.426;2023-11-21T13:09:08;102004.91;;;9.39;91.59
83631;BME280;73593;52.134;5.426;2023-11-21T13:11:40;102011.59;;;9.45;91.60
83631;BME280;73593;52.134;5.426;2023-11-21T13:14:07;102019.47;;;9.47;91.82
83631;BME280;73593;52.134;5.426;2023-11-21T13:16:34;102017.56;;;9.49;91.70
83631;BME280;73593;52.134;5.426;2023-11-21T13:19:01;102011.53;;;9.47;91.81
83631;BME280;73593;52.134;5.426;2023-11-21T13:21:30;102016.81;;;9.47;91.75